Terminal Aerodrome Forecast
Issued by NWS Sterling, VA

Home | Current Version | Previous Version | Text Only | Print | Product List | Glossary On
Versions: 1 2 3 4 5 6 7 8 9 10 11 12 13
000
FTUS41 KLWX 131100
TAFCHO
TAF
KCHO 131131Z 1312/1412 19004KT P6SM SCT070 BKN130
     FM131600 21008KT P6SM SCT050 BKN090
     FM131800 23009KT P6SM VCTS SCT050CB BKN090
     FM140000 23006KT P6SM BKN090=

USA.gov is the U.S. government's official web portal to all federal, state and local government web resources and services.